createdAt,value
2023-03-27T00:02:28.998Z,67.64
2023-03-27T00:05:20.667Z,67.60
2023-03-27T00:08:11.515Z,67.73
2023-03-27T00:11:02.191Z,67.58
2023-03-27T00:13:54.621Z,67.49
2023-03-27T00:16:46.612Z,67.46
2023-03-27T00:19:37.463Z,67.67
2023-03-27T00:22:30.077Z,67.59
2023-03-27T00:25:22.757Z,67.70
2023-03-27T00:28:14.066Z,67.31
2023-03-27T00:31:04.853Z,67.44
2023-03-27T00:33:55.982Z,67.67
2023-03-27T00:36:51.277Z,67.61
2023-03-27T00:39:42.587Z,67.64
2023-03-27T00:42:33.633Z,67.63
2023-03-27T00:45:26.682Z,67.72
2023-03-27T00:48:18.921Z,67.60
2023-03-27T00:51:09.873Z,67.55
2023-03-27T00:54:00.775Z,67.79
2023-03-27T00:56:51.943Z,67.78
2023-03-27T00:59:43.167Z,67.70
2023-03-27T01:02:33.786Z,67.70
2023-03-27T01:05:24.897Z,67.69
2023-03-27T01:08:16.597Z,67.79
2023-03-27T01:11:15.061Z,67.90
2023-03-27T01:14:12.330Z,67.94
2023-03-27T01:17:21.125Z,67.95
2023-03-27T01:20:25.762Z,67.88
2023-03-27T01:23:59.142Z,67.93
2023-03-27T01:27:06.368Z,68.05
2023-03-27T01:30:17.194Z,68.17
2023-03-27T01:33:27.241Z,68.17
2023-03-27T01:36:25.062Z,67.95
2023-03-27T01:39:37.461Z,67.98
2023-03-27T01:42:31.490Z,68.09
2023-03-27T01:45:23.835Z,68.06
2023-03-27T01:48:16.971Z,68.31
2023-03-27T01:51:09.366Z,68.52
2023-03-27T01:54:01.563Z,68.40
2023-03-27T01:56:54.132Z,68.21
2023-03-27T01:59:47.308Z,68.34
2023-03-27T02:02:37.640Z,68.35
2023-03-27T02:05:31.740Z,68.36
2023-03-27T02:08:24.747Z,68.19
2023-03-27T02:11:18.944Z,68.05
2023-03-27T02:14:10.458Z,67.96
2023-03-27T02:17:03.564Z,68.00
2023-03-27T02:19:57.537Z,67.76
2023-03-27T02:22:49.576Z,67.76
2023-03-27T02:25:40.765Z,67.63
2023-03-27T02:28:49.341Z,67.67
2023-03-27T02:31:46.498Z,67.37
2023-03-27T02:34:51.019Z,67.57
2023-03-27T02:37:47.540Z,67.49
2023-03-27T02:40:42.004Z,67.93
2023-03-27T02:43:57.585Z,67.57
2023-03-27T02:47:03.050Z,67.64
2023-03-27T02:49:55.236Z,67.59
2023-03-27T02:52:46.860Z,68.01
2023-03-27T02:55:39.976Z,68.49
2023-03-27T02:58:39.838Z,68.22
2023-03-27T03:01:37.482Z,68.52
2023-03-27T03:04:41.841Z,68.68
2023-03-27T03:07:50.449Z,68.62
2023-03-27T03:10:44.758Z,68.81
2023-03-27T03:13:36.372Z,69.06
2023-03-27T03:16:27.156Z,68.87
2023-03-27T03:19:17.677Z,68.89
2023-03-27T03:22:08.358Z,68.99
2023-03-27T03:25:00.108Z,68.88
2023-03-27T03:27:58.576Z,68.69
2023-03-27T03:30:51.523Z,69.06
2023-03-27T03:33:42.434Z,69.28
2023-03-27T03:36:32.968Z,69.50
2023-03-27T03:39:24.404Z,69.64
2023-03-27T03:42:22.340Z,69.72
2023-03-27T03:45:16.332Z,69.85
2023-03-27T03:48:08.027Z,69.76
2023-03-27T03:50:58.793Z,69.98
2023-03-27T03:53:49.906Z,69.82
2023-03-27T03:56:41.816Z,69.81
2023-03-27T03:59:32.546Z,69.80
2023-03-27T04:02:41.672Z,69.85
2023-03-27T04:05:34.822Z,69.92
2023-03-27T04:08:25.472Z,70.04
2023-03-27T04:11:28.013Z,70.25
2023-03-27T04:14:29.580Z,70.01
2023-03-27T04:17:20.786Z,70.37
2023-03-27T04:20:13.082Z,70.36
2023-03-27T04:23:03.912Z,70.51
2023-03-27T04:25:55.053Z,70.69
2023-03-27T04:28:51.733Z,70.60
2023-03-27T04:32:01.422Z,70.71
2023-03-27T04:35:12.737Z,70.66
2023-03-27T04:38:13.385Z,70.77
2023-03-27T04:41:09.452Z,70.69
2023-03-27T04:44:00.433Z,70.60
2023-03-27T04:46:52.095Z,70.68
2023-03-27T04:49:47.110Z,70.80
2023-03-27T04:52:50.645Z,70.60
2023-03-27T04:55:43.385Z,70.55
2023-03-27T04:58:37.203Z,70.73
2023-03-27T05:01:31.667Z,70.62
2023-03-27T05:04:39.099Z,70.40
2023-03-27T05:07:39.291Z,70.15
2023-03-27T05:10:31.009Z,70.17
2023-03-27T05:13:22.899Z,70.02
2023-03-27T05:16:13.860Z,69.92
2023-03-27T05:19:08.014Z,70.09
2023-03-27T05:22:04.722Z,69.59
2023-03-27T05:24:55.552Z,69.71
2023-03-27T05:27:49.738Z,69.52
2023-03-27T05:30:42.356Z,69.26
2023-03-27T05:33:40.004Z,69.08
2023-03-27T05:36:31.917Z,68.83
2023-03-27T05:39:25.499Z,68.74
2023-03-27T05:42:16.256Z,68.14
2023-03-27T05:45:07.796Z,67.92
2023-03-27T05:47:59.922Z,67.61
2023-03-27T05:50:51.137Z,67.61
2023-03-27T05:53:44.924Z,67.36
2023-03-27T05:56:41.651Z,66.76
2023-03-27T05:59:33.412Z,66.48
2023-03-27T06:02:35.864Z,66.76
2023-03-27T06:05:27.825Z,66.46
2023-03-27T06:08:18.135Z,65.89
2023-03-27T06:11:14.003Z,65.61
2023-03-27T06:14:13.246Z,65.38
2023-03-27T06:17:20.862Z,65.58
2023-03-27T06:20:22.927Z,65.57
2023-03-27T06:23:15.695Z,65.61
2023-03-27T06:26:06.432Z,65.28
2023-03-27T06:28:57.457Z,65.11
2023-03-27T06:31:48.420Z,65.33
2023-03-27T06:34:50.456Z,65.09
2023-03-27T06:38:02.863Z,65.38
2023-03-27T06:40:53.543Z,65.68
2023-03-27T06:43:44.094Z,65.74
2023-03-27T06:46:45.240Z,65.78
2023-03-27T06:50:03.191Z,66.05
2023-03-27T06:52:53.742Z,65.85
2023-03-27T06:56:04.783Z,66.11
2023-03-27T06:59:09.125Z,65.90
2023-03-27T07:02:00.789Z,65.93
2023-03-27T07:05:17.769Z,65.88
2023-03-27T07:08:21.165Z,65.96
2023-03-27T07:11:15.044Z,65.64
2023-03-27T07:14:12.112Z,65.40
2023-03-27T07:17:02.911Z,65.62
2023-03-27T07:20:07.872Z,65.73
2023-03-27T07:22:58.909Z,65.67
2023-03-27T07:26:07.924Z,65.91
2023-03-27T07:29:19.654Z,65.98
2023-03-27T07:32:22.330Z,65.99
2023-03-27T07:35:21.056Z,66.20
2023-03-27T07:38:30.942Z,65.99
2023-03-27T07:41:36.779Z,65.96
2023-03-27T07:44:40.956Z,65.80
2023-03-27T07:47:32.295Z,65.78
2023-03-27T07:50:23.903Z,65.99
2023-03-27T07:53:33.584Z,65.53
2023-03-27T07:56:29.637Z,65.13
2023-03-27T07:59:34.890Z,64.68
2023-03-27T08:02:32.584Z,64.70
2023-03-27T08:05:23.076Z,64.91
2023-03-27T08:08:23.901Z,64.77
2023-03-27T08:11:30.069Z,64.55
2023-03-27T08:14:21.901Z,64.82
2023-03-27T08:17:16.128Z,64.90
2023-03-27T08:20:10.127Z,64.59
2023-03-27T08:23:07.849Z,63.40
2023-03-27T08:26:18.453Z,62.99
2023-03-27T08:29:35.136Z,62.12
2023-03-27T08:32:26.209Z,61.84
2023-03-27T08:35:18.151Z,61.17
2023-03-27T08:38:23.699Z,60.92
2023-03-27T08:41:38.641Z,60.31
2023-03-27T08:44:36.973Z,60.10
2023-03-27T08:47:32.700Z,60.24
2023-03-27T08:50:40.048Z,60.21
2023-03-27T08:53:39.639Z,60.13
2023-03-27T08:56:30.347Z,59.77
2023-03-27T08:59:22.649Z,59.51
2023-03-27T09:02:19.702Z,59.62
2023-03-27T09:05:15.639Z,59.10
2023-03-27T09:08:10.525Z,58.83
2023-03-27T09:11:03.567Z,58.78
2023-03-27T09:13:57.484Z,58.88
2023-03-27T09:16:50.086Z,58.78
2023-03-27T09:19:56.704Z,58.31
2023-03-27T09:22:52.712Z,58.01
2023-03-27T09:26:06.793Z,58.20
2023-03-27T09:29:20.752Z,58.46
2023-03-27T09:32:16.227Z,58.45
2023-03-27T09:35:07.643Z,58.11
2023-03-27T09:38:04.051Z,58.26
2023-03-27T09:40:58.198Z,58.19
2023-03-27T09:43:53.751Z,58.37
2023-03-27T09:46:45.850Z,58.10
2023-03-27T09:49:36.915Z,58.28
2023-03-27T09:52:38.310Z,58.49
2023-03-27T09:55:53.183Z,58.51
2023-03-27T09:58:46.352Z,58.93
2023-03-27T10:01:38.369Z,58.99
2023-03-27T10:04:36.767Z,59.26
2023-03-27T10:07:27.425Z,59.21
2023-03-27T10:10:37.945Z,59.40
2023-03-27T10:13:29.588Z,59.57
2023-03-27T10:16:21.640Z,59.33
2023-03-27T10:19:25.103Z,59.64
2023-03-27T10:22:22.322Z,59.56
2023-03-27T10:25:19.429Z,59.98
2023-03-27T10:28:20.331Z,59.94
2023-03-27T10:31:38.032Z,60.26
2023-03-27T10:34:51.589Z,60.40
2023-03-27T10:37:49.902Z,60.35
2023-03-27T10:40:59.244Z,59.84
2023-03-27T10:43:59.396Z,60.13
2023-03-27T10:46:50.341Z,59.76
2023-03-27T10:49:44.267Z,59.77
2023-03-27T10:52:47.042Z,59.72
2023-03-27T10:55:54.018Z,59.78
2023-03-27T10:58:47.215Z,60.12
2023-03-27T11:01:39.592Z,60.00
2023-03-27T11:04:37.590Z,59.96
2023-03-27T11:07:33.989Z,59.85
2023-03-27T11:10:28.005Z,59.67
2023-03-27T11:13:23.281Z,59.21
2023-03-27T11:16:22.093Z,59.23
2023-03-27T11:19:39.384Z,59.33
2023-03-27T11:22:52.665Z,59.40
2023-03-27T11:26:00.272Z,59.61
2023-03-27T11:28:53.137Z,59.61
2023-03-27T11:31:46.399Z,59.88
2023-03-27T11:34:41.684Z,59.29
2023-03-27T11:37:53.502Z,59.18
2023-03-27T11:40:44.897Z,59.17
2023-03-27T11:43:35.563Z,59.03
2023-03-27T11:46:44.817Z,58.82
2023-03-27T11:50:04.888Z,58.41
2023-03-27T11:53:05.481Z,58.18
2023-03-27T11:56:32.393Z,57.69
2023-03-27T11:59:49.151Z,56.83
2023-03-27T12:02:50.285Z,56.76
2023-03-27T12:05:48.388Z,56.34
2023-03-27T12:08:48.300Z,55.94
2023-03-27T12:11:40.269Z,55.51
2023-03-27T12:14:40.444Z,55.27
2023-03-27T12:17:46.210Z,55.27
2023-03-27T12:20:58.707Z,55.21
2023-03-27T12:24:09.687Z,55.08
2023-03-27T12:27:07.570Z,54.74
2023-03-27T12:30:20.307Z,54.76
2023-03-27T12:33:32.547Z,54.66
2023-03-27T12:36:24.403Z,54.66
2023-03-27T12:39:20.120Z,54.31
2023-03-27T12:42:16.533Z,54.15
2023-03-27T12:45:16.227Z,54.02
2023-03-27T12:48:19.373Z,53.75
2023-03-27T12:51:15.162Z,53.59
2023-03-27T12:54:26.567Z,53.70
2023-03-27T12:57:20.768Z,53.77
2023-03-27T13:00:22.322Z,53.69
2023-03-27T13:03:22.800Z,53.71
2023-03-27T13:06:24.712Z,53.77
2023-03-27T13:09:40.132Z,53.66
2023-03-27T13:12:52.595Z,53.81
2023-03-27T13:15:52.297Z,53.19
2023-03-27T13:19:01.925Z,52.99
2023-03-27T13:21:58.470Z,52.68
2023-03-27T13:25:09.110Z,52.77
2023-03-27T13:28:28.469Z,52.52
2023-03-27T13:32:01.669Z,52.26
2023-03-27T13:35:33.048Z,52.23
2023-03-27T13:39:08.052Z,51.95
2023-03-27T13:42:13.564Z,52.39
2023-03-27T13:45:13.981Z,52.41
2023-03-27T13:48:33.841Z,51.81
2023-03-27T13:51:44.729Z,51.79
2023-03-27T13:54:55.730Z,51.78
2023-03-27T13:58:14.962Z,52.06
2023-03-27T14:01:34.341Z,52.14
2023-03-27T14:04:59.933Z,52.16
2023-03-27T14:08:25.280Z,52.08
2023-03-27T14:11:59.014Z,52.37
2023-03-27T14:15:28.923Z,52.38
2023-03-27T14:19:18.986Z,52.21
2023-03-27T14:22:14.519Z,52.14
2023-03-27T14:25:15.096Z,52.15
2023-03-27T14:28:14.682Z,51.92
2023-03-27T14:31:08.640Z,51.92
2023-03-27T14:34:22.459Z,51.80
2023-03-27T14:37:31.709Z,52.05
2023-03-27T14:40:28.531Z,51.84
2023-03-27T14:43:22.389Z,51.83
2023-03-27T14:46:16.984Z,51.18
2023-03-27T14:49:08.738Z,51.24
2023-03-27T14:52:04.091Z,50.86
2023-03-27T14:55:30.157Z,50.24
2023-03-27T14:58:43.124Z,50.12
2023-03-27T15:01:35.215Z,50.19
2023-03-27T15:04:26.784Z,50.10
2023-03-27T15:07:20.103Z,50.36
2023-03-27T15:10:26.321Z,50.48
2023-03-27T15:13:27.620Z,50.78
2023-03-27T15:16:20.927Z,50.87
2023-03-27T15:19:23.214Z,50.94
2023-03-27T15:22:18.133Z,51.07
2023-03-27T15:25:10.116Z,51.44
2023-03-27T15:28:00.769Z,51.37
2023-03-27T15:30:52.439Z,51.07
2023-03-27T15:33:46.658Z,50.96
2023-03-27T15:36:37.492Z,50.26
2023-03-27T15:39:28.230Z,49.88
2023-03-27T15:42:18.773Z,49.61
2023-03-27T15:45:12.705Z,49.56
2023-03-27T15:48:06.596Z,49.40
2023-03-27T15:50:58.359Z,49.32
2023-03-27T15:53:49.864Z,49.17
2023-03-27T15:56:41.607Z,49.23
2023-03-27T15:59:32.719Z,49.07
2023-03-27T16:02:24.689Z,49.24
2023-03-27T16:05:17.656Z,49.32
2023-03-27T16:08:08.714Z,49.49
2023-03-27T16:11:00.599Z,49.66
2023-03-27T16:13:56.126Z,49.86
2023-03-27T16:16:49.714Z,49.82
2023-03-27T16:19:54.896Z,49.65
2023-03-27T16:22:45.659Z,49.73
2023-03-27T16:25:36.507Z,49.83
2023-03-27T16:28:29.822Z,49.76
2023-03-27T16:31:21.481Z,49.73
2023-03-27T16:34:23.333Z,49.66
2023-03-27T16:37:14.471Z,49.52
2023-03-27T16:40:05.188Z,49.54
2023-03-27T16:42:56.054Z,49.56
2023-03-27T16:45:47.901Z,49.60
2023-03-27T16:48:38.678Z,49.62
2023-03-27T16:51:32.690Z,49.66
2023-03-27T16:54:23.213Z,50.02
2023-03-27T16:57:13.885Z,50.36
2023-03-27T17:00:05.535Z,50.93
2023-03-27T17:02:56.519Z,51.13
2023-03-27T17:05:50.515Z,51.35
2023-03-27T17:08:41.570Z,51.61
2023-03-27T17:11:32.601Z,52.04
2023-03-27T17:14:23.631Z,52.19
2023-03-27T17:17:14.655Z,52.66
2023-03-27T17:20:07.759Z,52.58
2023-03-27T17:22:58.565Z,53.01
2023-03-27T17:25:49.465Z,53.41
2023-03-27T17:28:40.155Z,53.77
2023-03-27T17:31:31.301Z,53.94
2023-03-27T17:34:22.400Z,53.98
2023-03-27T17:37:13.786Z,54.68
2023-03-27T17:40:09.748Z,54.80
2023-03-27T17:43:00.927Z,54.96
2023-03-27T17:45:52.009Z,55.15
2023-03-27T17:48:47.797Z,55.45
2023-03-27T17:51:42.261Z,55.55
2023-03-27T17:54:32.777Z,55.56
2023-03-27T17:57:24.263Z,55.92
2023-03-27T18:00:17.937Z,56.25
2023-03-27T18:03:09.061Z,56.15
2023-03-27T18:06:05.396Z,56.47
2023-03-27T18:08:56.047Z,56.63
2023-03-27T18:11:47.142Z,56.62
2023-03-27T18:14:38.530Z,56.82
2023-03-27T18:17:29.079Z,56.69
2023-03-27T18:20:20.356Z,56.42
2023-03-27T18:23:11.215Z,56.86
2023-03-27T18:26:04.772Z,56.48
2023-03-27T18:28:55.619Z,56.36
2023-03-27T18:31:46.464Z,56.34
2023-03-27T18:34:37.416Z,56.49
2023-03-27T18:37:28.537Z,56.41
2023-03-27T18:40:19.819Z,56.23
2023-03-27T18:43:12.549Z,56.46
2023-03-27T18:46:06.247Z,56.39
2023-03-27T18:48:58.725Z,56.21
2023-03-27T18:51:49.100Z,56.46
2023-03-27T18:54:39.926Z,56.38
2023-03-27T18:57:30.379Z,56.34
2023-03-27T19:00:22.003Z,56.25
2023-03-27T19:03:17.978Z,56.08
2023-03-27T19:06:10.409Z,56.13
2023-03-27T19:09:01.437Z,56.05
2023-03-27T19:11:55.371Z,56.08
2023-03-27T19:15:19.881Z,56.14
2023-03-27T19:18:46.839Z,56.06
2023-03-27T19:21:41.983Z,55.96
2023-03-27T19:24:41.578Z,56.12
2023-03-27T19:27:39.197Z,56.15
2023-03-27T19:30:30.666Z,55.92
2023-03-27T19:33:21.775Z,55.79
2023-03-27T19:36:13.041Z,55.80
2023-03-27T19:39:04.591Z,55.78
2023-03-27T19:41:56.016Z,55.84
2023-03-27T19:44:46.741Z,55.80
2023-03-27T19:47:37.706Z,55.91
2023-03-27T19:50:28.435Z,55.67
2023-03-27T19:53:35.734Z,55.53
2023-03-27T19:56:26.737Z,55.45
2023-03-27T19:59:28.260Z,55.41
2023-03-27T20:02:21.389Z,55.15
2023-03-27T20:05:12.501Z,55.31
2023-03-27T20:08:03.181Z,55.46
2023-03-27T20:10:53.661Z,55.48
2023-03-27T20:13:55.571Z,55.53
2023-03-27T20:16:48.256Z,55.50
2023-03-27T20:19:46.188Z,55.83
2023-03-27T20:22:50.256Z,55.56
2023-03-27T20:25:50.045Z,55.65
2023-03-27T20:28:40.887Z,55.56
2023-03-27T20:31:31.655Z,55.69
2023-03-27T20:34:24.144Z,55.46
2023-03-27T20:37:14.743Z,55.62
2023-03-27T20:40:08.635Z,55.60
2023-03-27T20:43:06.045Z,55.72
2023-03-27T20:45:59.074Z,55.66
2023-03-27T20:48:53.889Z,55.77
2023-03-27T20:51:45.534Z,55.79
2023-03-27T20:54:36.034Z,55.51
2023-03-27T20:57:26.684Z,55.92
2023-03-27T21:00:18.111Z,55.76
2023-03-27T21:03:08.952Z,55.75
2023-03-27T21:06:00.987Z,56.22
2023-03-27T21:08:51.792Z,56.19
2023-03-27T21:11:42.374Z,56.28
2023-03-27T21:14:32.898Z,56.28
2023-03-27T21:17:23.425Z,56.42
2023-03-27T21:20:14.605Z,56.32
2023-03-27T21:23:05.581Z,56.54
2023-03-27T21:25:56.202Z,56.52
2023-03-27T21:28:46.571Z,56.58
2023-03-27T21:31:37.227Z,56.58
2023-03-27T21:34:28.356Z,56.77
2023-03-27T21:37:19.248Z,56.63
2023-03-27T21:40:11.702Z,56.72
2023-03-27T21:43:02.518Z,57.00
2023-03-27T21:45:53.325Z,56.95
2023-03-27T21:48:44.863Z,56.84
2023-03-27T21:51:35.908Z,57.17
2023-03-27T21:54:26.446Z,57.00
2023-03-27T21:57:17.257Z,57.08
2023-03-27T22:00:09.994Z,57.28
2023-03-27T22:03:03.568Z,57.29
2023-03-27T22:06:07.709Z,57.29
2023-03-27T22:09:01.378Z,57.26
2023-03-27T22:11:51.758Z,57.44
2023-03-27T22:14:42.130Z,57.24
2023-03-27T22:17:33.146Z,57.24
2023-03-27T22:20:23.788Z,57.34
2023-03-27T22:23:14.341Z,57.20
2023-03-27T22:26:04.953Z,57.30
2023-03-27T22:28:57.231Z,57.20
2023-03-27T22:31:47.978Z,57.30
2023-03-27T22:34:38.376Z,57.31
2023-03-27T22:37:28.838Z,57.36
2023-03-27T22:40:19.630Z,57.44
2023-03-27T22:43:10.201Z,57.52
2023-03-27T22:46:06.189Z,57.37
2023-03-27T22:48:57.333Z,57.49
2023-03-27T22:51:47.834Z,57.67
2023-03-27T22:54:38.510Z,57.75
2023-03-27T22:57:29.162Z,57.85
2023-03-27T23:00:21.892Z,57.90
2023-03-27T23:03:12.766Z,58.03
2023-03-27T23:06:03.714Z,58.02
2023-03-27T23:08:54.296Z,58.31
2023-03-27T23:11:45.469Z,58.16
2023-03-27T23:14:36.210Z,58.31
2023-03-27T23:17:27.378Z,58.37
2023-03-27T23:20:18.299Z,58.41
2023-03-27T23:23:08.804Z,58.57
2023-03-27T23:25:59.813Z,58.63
2023-03-27T23:28:50.645Z,58.54
2023-03-27T23:31:41.915Z,58.81
2023-03-27T23:34:32.597Z,58.81
2023-03-27T23:37:23.068Z,58.98
2023-03-27T23:40:14.344Z,59.01
2023-03-27T23:43:04.990Z,59.01
2023-03-27T23:45:56.302Z,58.67
2023-03-27T23:48:47.229Z,58.80
2023-03-27T23:51:37.762Z,58.73
2023-03-27T23:54:28.305Z,58.42
2023-03-27T23:57:19.137Z,58.37
